createdAt,value
2017-07-18T00:00:53.134Z,16.16
2017-07-18T00:01:53.117Z,16.18
2017-07-18T00:02:53.100Z,16.11
2017-07-18T00:03:53.122Z,16.18
2017-07-18T00:04:53.118Z,16.13
2017-07-18T00:05:53.036Z,16.1
2017-07-18T00:06:53.018Z,16.1
2017-07-18T00:07:53.001Z,16.25
2017-07-18T00:08:52.983Z,16.16
2017-07-18T00:09:52.954Z,16.26
2017-07-18T00:10:52.941Z,16.23
2017-07-18T00:11:52.913Z,16.23
2017-07-18T00:12:52.893Z,16.22
2017-07-18T00:13:52.865Z,16.18
2017-07-18T00:14:52.850Z,16.17
2017-07-18T00:15:52.524Z,16.22
2017-07-18T00:16:52.813Z,16.22
2017-07-18T00:17:52.798Z,16.18
2017-07-18T00:18:52.769Z,16.1
2017-07-18T00:19:52.748Z,16.07
2017-07-18T00:20:52.718Z,16.08
2017-07-18T00:21:52.711Z,16.13
2017-07-18T00:22:52.388Z,16.03
2017-07-18T00:23:52.664Z,16.08
2017-07-18T00:24:52.640Z,16.07
2017-07-18T00:25:52.624Z,16.08
2017-07-18T00:26:52.603Z,16.04
2017-07-18T00:27:52.573Z,16.06
2017-07-18T00:28:52.556Z,16.01
2017-07-18T00:29:52.582Z,15.95
2017-07-18T00:30:52.512Z,15.96
2017-07-18T00:31:52.498Z,15.98
2017-07-18T00:32:52.474Z,15.88
2017-07-18T00:33:52.453Z,15.84
2017-07-18T00:34:52.444Z,15.93
2017-07-18T00:35:52.409Z,15.99
2017-07-18T00:36:52.441Z,15.89
2017-07-18T00:37:52.362Z,15.89
2017-07-18T00:38:52.347Z,15.91
2017-07-18T00:39:52.374Z,15.88
2017-07-18T00:40:52.314Z,15.78
2017-07-18T00:41:52.291Z,15.85
2017-07-18T00:42:52.419Z,15.84
2017-07-18T00:43:52.248Z,15.86
2017-07-18T00:44:52.224Z,15.84
2017-07-18T00:45:52.202Z,15.95
2017-07-18T00:46:52.210Z,15.93
2017-07-18T00:47:52.153Z,15.85
2017-07-18T00:48:52.141Z,15.88
2017-07-18T00:49:52.131Z,15.85
2017-07-18T00:50:52.094Z,15.77
2017-07-18T00:51:52.084Z,15.8
2017-07-18T00:52:52.059Z,15.71
2017-07-18T00:53:51.729Z,15.73
2017-07-18T00:54:52.019Z,15.67
2017-07-18T00:55:51.988Z,15.67
2017-07-18T00:56:51.973Z,15.74
2017-07-18T00:57:51.948Z,15.7
2017-07-18T00:58:51.925Z,15.68
2017-07-18T00:59:51.902Z,15.73
2017-07-18T01:00:51.895Z,15.73
2017-07-18T01:01:51.875Z,15.7
2017-07-18T01:02:51.860Z,15.71
2017-07-18T01:03:51.824Z,15.73
2017-07-18T01:04:51.808Z,15.62
2017-07-18T01:05:51.791Z,15.62
2017-07-18T01:06:51.765Z,15.73
2017-07-18T01:07:51.748Z,15.58
2017-07-18T01:08:51.742Z,15.51
2017-07-18T01:09:51.701Z,15.55
2017-07-18T01:10:51.686Z,15.66
2017-07-18T01:11:51.358Z,15.58
2017-07-18T01:12:51.644Z,15.66
2017-07-18T01:13:51.617Z,15.66
2017-07-18T01:14:51.604Z,15.64
2017-07-18T01:15:51.580Z,15.6
2017-07-18T01:16:51.555Z,15.6
2017-07-18T01:17:51.533Z,15.62
2017-07-18T01:18:51.514Z,15.55
2017-07-18T01:19:51.493Z,15.59
2017-07-18T01:20:51.525Z,15.6
2017-07-18T01:21:51.151Z,15.56
2017-07-18T01:22:51.439Z,15.64
2017-07-18T01:23:51.405Z,15.55
2017-07-18T01:24:51.383Z,15.55
2017-07-18T01:25:51.366Z,15.49
2017-07-18T01:26:51.343Z,15.41
2017-07-18T01:27:51.343Z,15.48
2017-07-18T01:28:51.302Z,15.4
2017-07-18T01:29:51.275Z,15.43
2017-07-18T01:30:51.517Z,15.4
2017-07-18T01:31:51.241Z,15.46
2017-07-18T01:32:51.225Z,15.38
2017-07-18T01:33:51.192Z,15.3
2017-07-18T01:34:51.183Z,15.34
2017-07-18T01:35:51.206Z,15.3
2017-07-18T01:36:51.132Z,15.31
2017-07-18T01:37:51.137Z,15.28
2017-07-18T01:38:51.104Z,15.13
2017-07-18T01:39:51.069Z,15.22
2017-07-18T01:40:51.052Z,15.27
2017-07-18T01:41:51.028Z,15.3
2017-07-18T01:42:51.014Z,15.31
2017-07-18T01:43:50.990Z,15.28
2017-07-18T01:44:50.977Z,15.3
2017-07-18T01:45:50.948Z,15.22
2017-07-18T01:46:50.927Z,15.23
2017-07-18T01:47:50.909Z,15.09
2017-07-18T01:48:50.888Z,15.12
2017-07-18T01:49:50.865Z,15.16
2017-07-18T01:50:50.842Z,15.16
2017-07-18T01:51:50.514Z,15.12
2017-07-18T01:52:50.804Z,15.16
2017-07-18T01:53:50.774Z,15.12
2017-07-18T01:54:50.453Z,15.09
2017-07-18T01:55:51.031Z,15.12
2017-07-18T01:56:50.717Z,15
2017-07-18T01:57:50.689Z,15
2017-07-18T01:58:50.670Z,15.01
2017-07-18T01:59:50.649Z,15.01
2017-07-18T02:00:50.352Z,14.94
2017-07-18T02:01:50.611Z,15.09
2017-07-18T02:02:50.586Z,15.05
2017-07-18T02:03:50.572Z,15.09
2017-07-18T02:04:50.549Z,15.05
2017-07-18T02:05:50.519Z,15.12
2017-07-18T02:06:50.520Z,15.12
2017-07-18T02:07:50.530Z,15.07
2017-07-18T02:08:50.470Z,15.11
2017-07-18T02:09:50.432Z,15.09
2017-07-18T02:10:50.420Z,15.15
2017-07-18T02:11:50.416Z,15.11
2017-07-18T02:12:50.081Z,15.09
2017-07-18T02:13:50.348Z,15.01
2017-07-18T02:14:50.393Z,15.01
2017-07-18T02:15:50.310Z,14.97
2017-07-18T02:16:50.300Z,14.85
2017-07-18T02:17:50.294Z,14.97
2017-07-18T02:18:50.255Z,15
2017-07-18T02:19:50.220Z,14.85
2017-07-18T02:20:50.206Z,14.9
2017-07-18T02:21:49.877Z,14.82
2017-07-18T02:22:50.166Z,14.82
2017-07-18T02:23:50.144Z,14.79
2017-07-18T02:24:50.120Z,14.83
2017-07-18T02:25:50.146Z,14.83
2017-07-18T02:26:50.084Z,14.87
2017-07-18T02:27:50.054Z,14.86
2017-07-18T02:28:50.096Z,14.82
2017-07-18T02:29:50.012Z,14.85
2017-07-18T02:30:49.994Z,14.82
2017-07-18T02:31:49.964Z,14.87
2017-07-18T02:32:49.959Z,14.87
2017-07-18T02:33:49.924Z,14.87
2017-07-18T02:34:49.916Z,14.9
2017-07-18T02:35:49.884Z,14.86
2017-07-18T02:36:49.891Z,14.82
2017-07-18T02:37:49.845Z,14.8
2017-07-18T02:38:49.824Z,14.86
2017-07-18T02:39:49.803Z,14.82
2017-07-18T02:40:49.801Z,14.79
2017-07-18T02:41:49.768Z,14.82
2017-07-18T02:42:49.775Z,14.71
2017-07-18T02:43:49.713Z,14.82
2017-07-18T02:44:49.694Z,14.71
2017-07-18T02:45:49.677Z,14.72
2017-07-18T02:46:49.657Z,14.78
2017-07-18T02:47:49.680Z,14.83
2017-07-18T02:48:49.669Z,14.87
2017-07-18T02:49:49.589Z,14.8
2017-07-18T02:50:49.568Z,14.78
2017-07-18T02:51:49.542Z,14.82
2017-07-18T02:52:49.530Z,14.74
2017-07-18T02:53:49.505Z,14.61
2017-07-18T02:54:49.492Z,14.54
2017-07-18T02:55:49.460Z,14.59
2017-07-18T02:56:49.440Z,14.6
2017-07-18T02:57:49.416Z,14.56
2017-07-18T02:58:49.399Z,14.49
2017-07-18T02:59:49.598Z,14.54
2017-07-18T03:00:49.361Z,14.45
2017-07-18T03:01:49.342Z,14.49
2017-07-18T03:02:49.324Z,14.44
2017-07-18T03:03:49.297Z,14.39
2017-07-18T03:04:49.267Z,14.41
2017-07-18T03:05:49.250Z,14.39
2017-07-18T03:06:49.242Z,14.42
2017-07-18T03:07:49.204Z,14.41
2017-07-18T03:08:49.195Z,14.41
2017-07-18T03:09:49.167Z,14.44
2017-07-18T03:10:49.139Z,14.44
2017-07-18T03:11:49.123Z,14.31
2017-07-18T03:12:49.104Z,14.36
2017-07-18T03:13:49.081Z,14.35
2017-07-18T03:14:49.063Z,14.24
2017-07-18T03:15:48.744Z,14.34
2017-07-18T03:16:49.031Z,14.21
2017-07-18T03:17:48.990Z,14.21
2017-07-18T03:18:48.981Z,14.23
2017-07-18T03:19:48.649Z,14.26
2017-07-18T03:20:48.931Z,14.3
2017-07-18T03:21:48.913Z,14.26
2017-07-18T03:22:48.944Z,14.31
2017-07-18T03:23:48.866Z,14.31
2017-07-18T03:24:48.847Z,14.31
2017-07-18T03:25:48.826Z,14.27
2017-07-18T03:26:48.858Z,14.21
2017-07-18T03:27:48.830Z,14.24
2017-07-18T03:28:48.766Z,14.2
2017-07-18T03:29:48.731Z,14.2
2017-07-18T03:30:48.717Z,14.09
2017-07-18T03:31:48.445Z,14.23
2017-07-18T03:32:48.678Z,14.12
2017-07-18T03:33:48.649Z,14.13
2017-07-18T03:34:48.650Z,14.11
2017-07-18T03:35:48.604Z,14.08
2017-07-18T03:36:48.645Z,14.06
2017-07-18T03:37:48.565Z,14.11
2017-07-18T03:38:48.561Z,14.08
2017-07-18T03:39:48.523Z,14.16
2017-07-18T03:40:48.502Z,14.11
2017-07-18T03:41:48.485Z,14.08
2017-07-18T03:42:48.520Z,14.01
2017-07-18T03:43:48.436Z,14.01
2017-07-18T03:44:48.427Z,13.99
2017-07-18T03:45:48.386Z,14.01
2017-07-18T03:46:48.383Z,14.11
2017-07-18T03:47:48.350Z,14.04
2017-07-18T03:48:48.336Z,14.04
2017-07-18T03:49:48.304Z,14.11
2017-07-18T03:50:48.296Z,14.21
2017-07-18T03:51:48.272Z,14.13
2017-07-18T03:52:47.946Z,14.23
2017-07-18T03:53:48.218Z,14.27
2017-07-18T03:54:48.223Z,14.27
2017-07-18T03:55:48.180Z,14.27
2017-07-18T03:56:48.162Z,14.29
2017-07-18T03:57:48.136Z,14.26
2017-07-18T03:58:48.118Z,14.26
2017-07-18T03:59:48.091Z,14.24
2017-07-18T04:00:48.131Z,14.19
2017-07-18T04:01:48.066Z,14.24
2017-07-18T04:02:48.117Z,14.17
2017-07-18T04:03:48.008Z,14.21
2017-07-18T04:04:47.701Z,14.17
2017-07-18T04:05:47.967Z,14.11
2017-07-18T04:06:47.955Z,14.17
2017-07-18T04:07:47.926Z,14.16
2017-07-18T04:08:47.905Z,14.06
2017-07-18T04:09:47.879Z,14.08
2017-07-18T04:10:47.875Z,14.05
2017-07-18T04:11:47.835Z,14.11
2017-07-18T04:12:47.830Z,14.12
2017-07-18T04:13:47.791Z,14.2
2017-07-18T04:14:47.485Z,14.21
2017-07-18T04:15:47.759Z,14.21
2017-07-18T04:16:47.736Z,14.29
2017-07-18T04:17:47.751Z,14.3
2017-07-18T04:18:47.689Z,14.45
2017-07-18T04:19:47.675Z,14.53
2017-07-18T04:20:47.652Z,14.67
2017-07-18T04:21:47.619Z,14.83
2017-07-18T04:22:47.662Z,14.8
2017-07-18T04:23:47.575Z,14.87
2017-07-18T04:24:47.559Z,15.03
2017-07-18T04:25:47.541Z,15.11
2017-07-18T04:26:47.520Z,15.25
2017-07-18T04:27:47.552Z,15.4
2017-07-18T04:28:47.477Z,15.49
2017-07-18T04:29:47.466Z,15.55
2017-07-18T04:30:47.439Z,15.78
2017-07-18T04:31:47.416Z,15.81
2017-07-18T04:32:47.398Z,15.89
2017-07-18T04:33:47.425Z,15.85
2017-07-18T04:34:47.090Z,15.78
2017-07-18T04:35:47.330Z,15.88
2017-07-18T04:36:47.318Z,15.89
2017-07-18T04:37:47.349Z,16.04
2017-07-18T04:38:47.276Z,16.11
2017-07-18T04:39:46.958Z,16.32
2017-07-18T04:40:47.238Z,16.33
2017-07-18T04:41:46.919Z,16.52
2017-07-18T04:42:47.204Z,16.7
2017-07-18T04:43:47.176Z,16.87
2017-07-18T04:44:47.160Z,17.02
2017-07-18T04:45:47.132Z,17.03
2017-07-18T04:46:47.121Z,17.15
2017-07-18T04:47:47.105Z,17.14
2017-07-18T04:48:47.078Z,17.12
2017-07-18T04:49:47.056Z,17.18
2017-07-18T04:50:46.741Z,17.27
2017-07-18T04:51:47.021Z,17.25
2017-07-18T04:52:46.995Z,17.28
2017-07-18T04:53:46.985Z,17.42
2017-07-18T04:54:46.960Z,17.46
2017-07-18T04:55:46.936Z,17.63
2017-07-18T04:56:47.223Z,17.74
2017-07-18T04:57:46.895Z,17.74
2017-07-18T04:58:46.935Z,17.77
2017-07-18T04:59:46.865Z,17.94
2017-07-18T05:00:46.843Z,17.99
2017-07-18T05:01:46.817Z,17.96
2017-07-18T05:02:46.830Z,17.94
2017-07-18T05:03:46.786Z,18.07
2017-07-18T05:04:46.769Z,18.11
2017-07-18T05:05:46.748Z,18.1
2017-07-18T05:06:46.745Z,18.31
2017-07-18T05:07:46.758Z,18.32
2017-07-18T05:08:46.691Z,18.49
2017-07-18T05:09:46.672Z,18.54
2017-07-18T05:10:46.654Z,18.51
2017-07-18T05:11:46.648Z,18.53
2017-07-18T05:12:46.622Z,18.64
2017-07-18T05:13:46.602Z,18.56
2017-07-18T05:14:46.631Z,18.62
2017-07-18T05:15:46.266Z,18.71
2017-07-18T05:16:46.561Z,18.84
2017-07-18T05:17:46.525Z,19.05
2017-07-18T05:18:46.511Z,19.09
2017-07-18T05:19:46.496Z,19.2
2017-07-18T05:20:46.486Z,19.24
2017-07-18T05:21:46.459Z,19.32
2017-07-18T05:22:46.436Z,19.4
2017-07-18T05:23:46.474Z,19.45
2017-07-18T05:24:46.404Z,19.6
2017-07-18T05:25:46.385Z,19.64
2017-07-18T05:26:46.086Z,19.67
2017-07-18T05:27:46.045Z,19.62
2017-07-18T05:28:46.387Z,19.75
2017-07-18T05:29:46.360Z,19.82
2017-07-18T05:30:46.309Z,19.89
2017-07-18T05:31:46.274Z,19.87
2017-07-18T05:32:46.259Z,19.8
2017-07-18T05:33:46.242Z,19.57
2017-07-18T05:34:46.232Z,19.65
2017-07-18T05:35:46.225Z,19.57
2017-07-18T05:36:46.211Z,19.55
2017-07-18T05:37:45.869Z,19.57
2017-07-18T05:38:46.168Z,19.46
2017-07-18T05:39:46.144Z,19.4
2017-07-18T05:40:46.133Z,19.28
2017-07-18T05:41:46.114Z,19.42
2017-07-18T05:42:46.093Z,19.55
2017-07-18T05:43:46.084Z,19.6
2017-07-18T05:44:46.060Z,19.89
2017-07-18T05:45:45.741Z,20.05
2017-07-18T05:46:46.024Z,20.2
2017-07-18T05:47:46.013Z,20.33
2017-07-18T05:48:46.002Z,20.41
2017-07-18T05:49:45.979Z,20.71
2017-07-18T05:50:45.954Z,20.66
2017-07-18T05:51:45.944Z,20.63
2017-07-18T05:52:45.631Z,20.53
2017-07-18T05:53:45.912Z,20.37
2017-07-18T05:54:45.888Z,20.17
2017-07-18T05:55:45.871Z,20.26
2017-07-18T05:56:45.901Z,20.44
2017-07-18T05:57:45.838Z,20.75
2017-07-18T05:58:45.830Z,21.11
2017-07-18T05:59:45.802Z,21.46
2017-07-18T06:00:45.791Z,21.7
2017-07-18T06:01:45.770Z,21.68
2017-07-18T06:02:45.775Z,21.51
2017-07-18T06:03:45.746Z,21.22
2017-07-18T06:04:45.741Z,21.01
2017-07-18T06:05:45.717Z,21
2017-07-18T06:06:45.702Z,20.96
2017-07-18T06:07:45.378Z,20.9
2017-07-18T06:08:45.676Z,20.88
2017-07-18T06:09:45.656Z,20.83
2017-07-18T06:10:45.690Z,20.87
2017-07-18T06:11:45.624Z,20.73
2017-07-18T06:12:45.306Z,20.56
2017-07-18T06:13:45.591Z,20.5
2017-07-18T06:14:45.574Z,20.33
2017-07-18T06:15:45.593Z,20.25
2017-07-18T06:16:45.542Z,20.23
2017-07-18T06:17:45.521Z,20.08
2017-07-18T06:18:45.517Z,20.15
2017-07-18T06:19:45.503Z,20.1
2017-07-18T06:20:45.489Z,20.22
2017-07-18T06:21:45.459Z,20.22
2017-07-18T06:22:45.442Z,20.13
2017-07-18T06:23:45.479Z,19.94
2017-07-18T06:24:45.409Z,19.92
2017-07-18T06:25:45.389Z,19.86
2017-07-18T06:26:45.372Z,19.68
2017-07-18T06:27:45.378Z,19.7
2017-07-18T06:28:45.345Z,19.7
2017-07-18T06:29:45.331Z,19.82
2017-07-18T06:30:45.304Z,19.9
2017-07-18T06:31:45.289Z,20
2017-07-18T06:32:45.326Z,20.12
2017-07-18T06:33:44.955Z,20.05
2017-07-18T06:34:45.295Z,20.05
2017-07-18T06:35:45.218Z,20.19
2017-07-18T06:36:45.208Z,20.33
2017-07-18T06:37:45.181Z,20.26
2017-07-18T06:38:45.170Z,20.42
2017-07-18T06:39:45.148Z,20.66
2017-07-18T06:40:45.159Z,20.82
2017-07-18T06:41:45.186Z,20.88
2017-07-18T06:42:45.113Z,20.69
2017-07-18T06:43:45.091Z,20.58
2017-07-18T06:44:45.062Z,20.63
2017-07-18T06:45:45.055Z,20.76
2017-07-18T06:46:45.043Z,20.73
2017-07-18T06:47:45.023Z,20.81
2017-07-18T06:48:44.996Z,21
2017-07-18T06:49:44.988Z,21.13
2017-07-18T06:50:44.663Z,21.22
2017-07-18T06:51:44.959Z,21.52
2017-07-18T06:52:44.945Z,21.66
2017-07-18T06:53:44.917Z,21.83
2017-07-18T06:54:44.913Z,22.17
2017-07-18T06:55:44.888Z,22.3
2017-07-18T06:56:44.868Z,22.52
2017-07-18T06:57:44.858Z,22.89
2017-07-18T06:58:44.895Z,23.06
2017-07-18T06:59:44.832Z,23.04
2017-07-18T07:00:44.532Z,23.07
2017-07-18T07:01:44.791Z,22.86
2017-07-18T07:02:44.778Z,22.54
2017-07-18T07:03:44.824Z,22.6
2017-07-18T07:04:44.750Z,22.61
2017-07-18T07:05:44.731Z,22.44
2017-07-18T07:06:44.739Z,22.24
2017-07-18T07:07:44.702Z,22.3
2017-07-18T07:08:44.692Z,22.46
2017-07-18T07:09:44.723Z,22.76
2017-07-18T07:10:44.661Z,23.16
2017-07-18T07:11:44.650Z,23.53
2017-07-18T07:12:44.632Z,23.82
2017-07-18T07:13:44.317Z,23.97
2017-07-18T07:14:44.600Z,24.18
2017-07-18T07:15:44.599Z,24.46
2017-07-18T07:16:44.577Z,24.45
2017-07-18T07:17:44.565Z,24.42
2017-07-18T07:18:44.547Z,24.66
2017-07-18T07:19:44.229Z,24.8
2017-07-18T07:20:44.527Z,24.89
2017-07-18T07:21:44.509Z,24.92
2017-07-18T07:22:44.499Z,24.59
2017-07-18T07:23:44.477Z,24.14
2017-07-18T07:24:44.474Z,23.67
2017-07-18T07:25:44.160Z,23.52
2017-07-18T07:26:44.161Z,23.41
2017-07-18T07:27:44.436Z,23.39
2017-07-18T07:28:44.417Z,23.23
2017-07-18T07:29:44.397Z,23.31
2017-07-18T07:30:44.092Z,23.41
2017-07-18T07:31:44.374Z,23.49
2017-07-18T07:32:44.420Z,23.49
2017-07-18T07:33:44.361Z,23.56
2017-07-18T07:34:44.339Z,23.62
2017-07-18T07:35:44.318Z,23.84
2017-07-18T07:36:44.311Z,24.14
2017-07-18T07:37:44.288Z,24.46
2017-07-18T07:38:43.991Z,24.75
2017-07-18T07:39:43.971Z,25.04
2017-07-18T07:40:44.265Z,25.16
2017-07-18T07:41:44.239Z,25.22
2017-07-18T07:42:44.241Z,25.04
2017-07-18T07:43:44.223Z,25.26
2017-07-18T07:44:44.220Z,25.36
2017-07-18T07:45:44.193Z,25.72
2017-07-18T07:46:44.175Z,25.72
2017-07-18T07:47:44.175Z,25.51
2017-07-18T07:48:43.859Z,25.2
2017-07-18T07:49:44.146Z,25.01
2017-07-18T07:50:43.890Z,25.04
2017-07-18T07:51:44.133Z,25.09
2017-07-18T07:52:44.107Z,25.19
2017-07-18T07:53:44.096Z,25.08
2017-07-18T07:54:44.077Z,24.99
2017-07-18T07:55:44.088Z,25.19
2017-07-18T07:56:44.060Z,25.48
2017-07-18T07:57:44.047Z,25.83
2017-07-18T07:58:43.742Z,26.12
2017-07-18T07:59:44.026Z,26.51
2017-07-18T08:00:44.019Z,26.79
2017-07-18T08:01:44.000Z,26.98
2017-07-18T08:02:43.695Z,27.27
2017-07-18T08:03:43.980Z,27.48
2017-07-18T08:04:43.973Z,27.84
2017-07-18T08:05:43.974Z,27.8
2017-07-18T08:06:43.954Z,27.34
2017-07-18T08:07:43.695Z,27.01
2017-07-18T08:08:43.934Z,26.96
2017-07-18T08:09:43.944Z,26.86
2017-07-18T08:10:43.906Z,26.66
2017-07-18T08:11:43.906Z,26.76
2017-07-18T08:12:43.893Z,26.98
2017-07-18T08:13:43.896Z,27.27
2017-07-18T08:14:43.595Z,27.53
2017-07-18T08:15:43.882Z,27.71
2017-07-18T08:16:43.916Z,27.8
2017-07-18T08:17:43.561Z,27.87
2017-07-18T08:18:43.850Z,28.03
2017-07-18T08:19:43.843Z,27.98
2017-07-18T08:20:43.841Z,27.63
2017-07-18T08:21:43.845Z,27.28
2017-07-18T08:22:43.832Z,27.16
2017-07-18T08:23:43.860Z,26.87
2017-07-18T08:24:43.801Z,26.68
2017-07-18T08:25:43.482Z,26.6
2017-07-18T08:26:43.788Z,26.65
2017-07-18T08:27:43.767Z,26.35
2017-07-18T08:28:43.776Z,26.08
2017-07-18T08:29:43.750Z,25.94
2017-07-18T08:30:43.737Z,25.71
2017-07-18T08:31:43.739Z,25.53
2017-07-18T08:32:43.712Z,25.59
2017-07-18T08:33:43.710Z,25.64
2017-07-18T08:34:43.706Z,25.57
2017-07-18T08:35:43.685Z,25.41
2017-07-18T08:36:43.676Z,25.48
2017-07-18T08:37:43.358Z,25.71
2017-07-18T08:38:43.665Z,25.78
2017-07-18T08:39:43.640Z,25.71
2017-07-18T08:40:43.323Z,25.83
2017-07-18T08:41:43.609Z,26.01
2017-07-18T08:42:43.606Z,26.09
2017-07-18T08:43:43.590Z,26.01
2017-07-18T08:44:43.580Z,25.85
2017-07-18T08:45:43.577Z,25.89
2017-07-18T08:46:43.562Z,26.01
2017-07-18T08:47:43.543Z,26.28
2017-07-18T08:48:43.235Z,26.46
2017-07-18T08:49:43.580Z,26.36
2017-07-18T08:50:43.508Z,26.23
2017-07-18T08:51:43.502Z,26.36
2017-07-18T08:52:43.190Z,26.57
2017-07-18T08:53:43.478Z,26.71
2017-07-18T08:54:43.471Z,26.81
2017-07-18T08:55:43.158Z,27.25
2017-07-18T08:56:43.152Z,27.4
2017-07-18T08:57:43.441Z,27.83
2017-07-18T08:58:43.427Z,28.02
2017-07-18T08:59:43.421Z,27.95
2017-07-18T09:00:43.417Z,28.11
2017-07-18T09:01:43.411Z,28.23
2017-07-18T09:02:43.397Z,28.2
2017-07-18T09:03:43.089Z,28.08
2017-07-18T09:04:43.374Z,28.11
2017-07-18T09:05:43.364Z,28.32
2017-07-18T09:06:43.363Z,28.4
2017-07-18T09:07:43.356Z,28.58
2017-07-18T09:08:43.340Z,28.92
2017-07-18T09:09:43.333Z,28.89
2017-07-18T09:10:43.335Z,28.73
2017-07-18T09:11:43.340Z,28.79
2017-07-18T09:12:43.013Z,28.98
2017-07-18T09:13:43.303Z,28.88
2017-07-18T09:14:43.293Z,28.6
2017-07-18T09:15:42.991Z,28.2
2017-07-18T09:16:43.277Z,28.08
2017-07-18T09:17:43.271Z,27.93
2017-07-18T09:18:43.266Z,27.91
2017-07-18T09:19:43.311Z,28.01
2017-07-18T09:20:43.263Z,27.87
2017-07-18T09:21:43.241Z,27.66
2017-07-18T09:22:43.235Z,27.58
2017-07-18T09:23:43.226Z,27.28
2017-07-18T09:24:43.221Z,27.38
2017-07-18T09:25:43.208Z,27.12
2017-07-18T09:26:43.199Z,27.11
2017-07-18T09:27:43.190Z,27.28
2017-07-18T09:28:43.246Z,27.05
2017-07-18T09:29:43.179Z,27.25
2017-07-18T09:30:43.193Z,27.45
2017-07-18T09:31:43.158Z,27.74
2017-07-18T09:32:42.854Z,27.88
2017-07-18T09:33:43.208Z,27.8
2017-07-18T09:34:43.130Z,27.93
2017-07-18T09:35:43.123Z,27.91
2017-07-18T09:36:43.120Z,28.05
2017-07-18T09:37:43.110Z,28.27
2017-07-18T09:38:43.100Z,28.38
2017-07-18T09:39:42.787Z,28.36
2017-07-18T09:40:43.093Z,28.21
2017-07-18T09:41:43.080Z,28.32
2017-07-18T09:42:43.071Z,28.52
2017-07-18T09:43:43.067Z,28.57
2017-07-18T09:44:43.048Z,28.45
2017-07-18T09:45:43.040Z,28.33
2017-07-18T09:46:43.046Z,28.3
2017-07-18T09:47:42.841Z,28.43
2017-07-18T09:48:43.028Z,28.4
2017-07-18T09:49:43.013Z,28.43
2017-07-18T09:50:43.002Z,28.58
2017-07-18T09:51:43.019Z,28.43
2017-07-18T09:52:43.009Z,28.39
2017-07-18T09:53:42.389Z,28.38
2017-07-18T09:54:42.975Z,28.42
2017-07-18T09:55:42.964Z,28.46
2017-07-18T09:56:42.961Z,28.6
2017-07-18T09:57:42.951Z,28.83
2017-07-18T09:58:42.950Z,28.97
2017-07-18T09:59:42.950Z,29.18
2017-07-18T10:00:42.939Z,29.18
2017-07-18T10:01:42.925Z,29.27
2017-07-18T10:02:42.919Z,29.12
2017-07-18T10:03:42.916Z,29.02
2017-07-18T10:04:42.897Z,28.88
2017-07-18T10:05:42.595Z,28.69
2017-07-18T10:06:42.938Z,28.74
2017-07-18T10:07:42.889Z,28.85
2017-07-18T10:08:42.880Z,28.95
2017-07-18T10:09:42.866Z,29
2017-07-18T10:10:42.575Z,28.97
2017-07-18T10:11:42.869Z,28.98
2017-07-18T10:12:42.849Z,28.89
2017-07-18T10:13:42.836Z,28.64
2017-07-18T10:14:42.836Z,28.32
2017-07-18T10:15:42.825Z,28.15
2017-07-18T10:16:42.818Z,28.21
2017-07-18T10:17:42.805Z,28.36
2017-07-18T10:18:42.498Z,28.13
2017-07-18T10:19:42.804Z,28.01
2017-07-18T10:20:42.801Z,28.01
2017-07-18T10:21:42.784Z,27.86
2017-07-18T10:22:42.778Z,28.02
2017-07-18T10:23:42.759Z,28.02
2017-07-18T10:24:42.761Z,28.08
2017-07-18T10:25:42.766Z,28.15
2017-07-18T10:26:42.739Z,28.21
2017-07-18T10:27:42.733Z,28.21
2017-07-18T10:28:42.716Z,28.05
2017-07-18T10:29:42.416Z,28.08
2017-07-18T10:30:42.710Z,28.3
2017-07-18T10:31:42.701Z,28.46
2017-07-18T10:32:42.702Z,28.5
2017-07-18T10:33:42.688Z,28.28
2017-07-18T10:34:42.680Z,28.33
2017-07-18T10:35:42.389Z,28.36
2017-07-18T10:36:42.356Z,28.3
2017-07-18T10:37:42.703Z,28.42
2017-07-18T10:38:42.701Z,28.35
2017-07-18T10:39:42.642Z,28.28
2017-07-18T10:40:42.629Z,28.13
2017-07-18T10:41:42.678Z,28.05
2017-07-18T10:42:42.616Z,28.01
2017-07-18T10:43:42.618Z,27.95
2017-07-18T10:44:42.600Z,27.74
2017-07-18T10:45:42.588Z,27.72
2017-07-18T10:46:42.591Z,27.93
2017-07-18T10:47:42.279Z,28.06
2017-07-18T10:48:42.563Z,28.25
2017-07-18T10:49:42.558Z,28.45
2017-07-18T10:50:42.556Z,28.67
2017-07-18T10:51:42.545Z,28.85
2017-07-18T10:52:42.532Z,28.87
2017-07-18T10:53:42.543Z,28.89
2017-07-18T10:54:42.524Z,28.8
2017-07-18T10:55:42.516Z,28.58
2017-07-18T10:56:42.509Z,28.38
2017-07-18T10:57:42.498Z,28.13
2017-07-18T10:58:42.489Z,28.05
2017-07-18T10:59:42.784Z,28.05
2017-07-18T11:00:42.579Z,28.18
2017-07-18T11:01:42.473Z,28.24
2017-07-18T11:02:42.463Z,28.21
2017-07-18T11:03:42.457Z,28.09
2017-07-18T11:04:42.439Z,28.06
2017-07-18T11:05:42.440Z,27.98
2017-07-18T11:06:42.438Z,27.74
2017-07-18T11:07:42.428Z,27.69
2017-07-18T11:08:42.412Z,27.66
2017-07-18T11:09:42.407Z,27.52
2017-07-18T11:10:42.407Z,27.35
2017-07-18T11:11:42.398Z,27.24
2017-07-18T11:12:42.390Z,27.18
2017-07-18T11:13:42.373Z,27.18
2017-07-18T11:14:42.370Z,27.2
2017-07-18T11:15:42.359Z,27.01
2017-07-18T11:16:42.041Z,26.76
2017-07-18T11:17:42.333Z,26.66
2017-07-18T11:18:42.021Z,26.57
2017-07-18T11:19:42.322Z,26.35
2017-07-18T11:20:42.313Z,26.28
2017-07-18T11:21:42.307Z,26.11
2017-07-18T11:22:42.314Z,26.06
2017-07-18T11:23:41.984Z,25.9
2017-07-18T11:24:42.273Z,25.86
2017-07-18T11:25:42.267Z,25.85
2017-07-18T11:26:42.252Z,25.75
2017-07-18T11:27:42.246Z,25.83
2017-07-18T11:28:42.236Z,25.79
2017-07-18T11:29:42.219Z,25.69
2017-07-18T11:30:42.263Z,25.51
2017-07-18T11:31:42.198Z,25.41
2017-07-18T11:32:42.181Z,25.38
2017-07-18T11:33:42.170Z,25.2
2017-07-18T11:34:42.158Z,25.04
2017-07-18T11:35:41.840Z,24.93
2017-07-18T11:36:42.131Z,24.8
2017-07-18T11:37:42.164Z,24.87
2017-07-18T11:38:42.095Z,24.89
2017-07-18T11:39:42.101Z,24.77
2017-07-18T11:40:42.070Z,24.71
2017-07-18T11:41:42.063Z,24.77
2017-07-18T11:42:42.039Z,24.75
2017-07-18T11:43:42.022Z,24.79
2017-07-18T11:44:42.015Z,24.82
2017-07-18T11:45:41.995Z,24.89
2017-07-18T11:46:41.974Z,24.9
2017-07-18T11:47:41.973Z,24.82
2017-07-18T11:48:41.965Z,24.84
2017-07-18T11:49:41.951Z,24.75
2017-07-18T11:50:41.911Z,24.6
2017-07-18T11:51:41.901Z,24.64
2017-07-18T11:52:41.911Z,24.63
2017-07-18T11:53:41.878Z,24.6
2017-07-18T11:54:41.911Z,24.68
2017-07-18T11:55:41.840Z,24.67
2017-07-18T11:56:41.821Z,24.64
2017-07-18T11:57:41.812Z,24.68
2017-07-18T11:58:41.795Z,24.63
2017-07-18T11:59:41.781Z,24.64
2017-07-18T12:00:41.756Z,24.61
2017-07-18T12:01:41.747Z,24.59
2017-07-18T12:02:41.721Z,24.53
2017-07-18T12:03:41.712Z,24.6
2017-07-18T12:04:41.747Z,24.55
2017-07-18T12:05:41.667Z,24.61
2017-07-18T12:06:41.357Z,24.63
2017-07-18T12:07:41.633Z,24.64
2017-07-18T12:08:41.626Z,24.77
2017-07-18T12:09:41.303Z,24.82
2017-07-18T12:13:45.634Z,24.61
2017-07-18T12:14:45.907Z,24.61
2017-07-18T12:15:45.951Z,24.55
2017-07-18T12:16:45.870Z,24.53
2017-07-18T12:17:45.854Z,24.63
2017-07-18T12:18:45.849Z,24.66
2017-07-18T12:19:45.823Z,24.74
2017-07-18T12:23:19.864Z,24.63
2017-07-18T12:24:19.573Z,24.63
2017-07-18T12:25:19.784Z,24.67
2017-07-18T12:26:19.770Z,24.67
2017-07-18T12:27:19.752Z,24.66
2017-07-18T12:28:19.746Z,24.77
2017-07-18T12:29:19.765Z,24.84
2017-07-18T12:30:19.750Z,24.74
2017-07-18T12:31:19.394Z,24.82
2017-07-18T12:32:19.668Z,24.79
2017-07-18T12:33:19.370Z,24.64
2017-07-18T12:34:19.637Z,24.68
2017-07-18T12:35:19.612Z,24.68
2017-07-18T12:36:19.608Z,24.63
2017-07-18T12:37:19.833Z,24.71
2017-07-18T12:38:19.611Z,24.79
2017-07-18T12:39:19.566Z,24.79
2017-07-18T12:40:19.549Z,24.79
2017-07-18T12:41:19.216Z,24.8
2017-07-18T12:42:19.188Z,24.74
2017-07-18T12:43:19.488Z,24.82
2017-07-18T12:44:19.471Z,24.89
2017-07-18T12:45:19.442Z,24.92
2017-07-18T12:46:19.426Z,24.99
2017-07-18T12:47:19.406Z,25.01
2017-07-18T12:48:19.546Z,25.01
2017-07-18T12:49:19.385Z,25.01
2017-07-18T12:50:19.361Z,25.01
2017-07-18T12:51:19.344Z,25.02
2017-07-18T12:52:19.357Z,25.09
2017-07-18T12:53:19.315Z,25.04
2017-07-18T12:54:19.291Z,24.94
2017-07-18T12:55:19.398Z,24.97
2017-07-18T12:56:19.261Z,25.07
2017-07-18T12:57:18.941Z,25.12
2017-07-18T12:58:19.478Z,25.02
2017-07-18T12:59:19.221Z,25.16
2017-07-18T13:00:19.194Z,25.2
2017-07-18T13:01:19.285Z,25.17